Time;durP1;ratioP1;P1;durP2;ratioP2;P2;SDS_P1;SDS_P2;PMS_P1;PMS_P2;Temp;Humidity;BMP_temperature;BMP_pressure;BME280_temperature;BME280_humidity;BME280_pressure;Samples;Min_cycle;Max_cycle;Signal;HPM_P1;HPM_P2
2021/11/09 03:47:42;;;;;;;19.38;5.85;;;9.30;88.80;;;;;;4902690;23;20069;-78
2021/11/09 03:50:10;;;;;;;10.95;5.60;;;9.30;88.70;;;;;;4874119;29;20333;-78
2021/11/09 03:55:24;;;;;;;14.23;5.45;;;9.40;88.60;;;;;;4875083;29;20044;-79
2021/11/09 03:58:02;;;;;;;11.43;5.55;;;9.40;88.40;;;;;;4889142;29;20020;-79
2021/11/09 04:00:32;;;;;;;20.10;5.90;;;9.40;88.50;;;;;;4875040;29;20048;-79
2021/11/09 04:03:01;;;;;;;13.00;5.38;;;9.40;88.50;;;;;;4873717;29;20082;-79
2021/11/09 04:05:33;;;;;;;17.85;5.75;;;9.30;88.40;;;;;;4858883;29;20041;-79
2021/11/09 04:08:17;;;;;;;16.95;5.45;;;9.40;88.60;;;;;;4889030;29;20392;-79
2021/11/09 04:10:58;;;;;;;15.45;5.22;;;9.40;88.50;;;;;;4870352;29;20348;-78
2021/11/09 04:13:54;;;;;;;16.10;5.97;;;9.40;88.40;;;;;;4841871;29;20050;-79
2021/11/09 05:09:36;;;;;;;13.93;4.93;;;9.40;88.40;;;;;;4856686;29;20033;-79
2021/11/09 05:12:03;;;;;;;17.40;4.97;;;9.40;88.40;;;;;;4854046;29;20149;-79
2021/11/09 05:14:30;;;;;;;14.00;5.10;;;9.40;88.40;;;;;;4853964;29;20025;-79
2021/11/09 05:16:56;;;;;;;15.85;5.68;;;9.40;88.40;;;;;;4854368;29;20026;-79
2021/11/09 05:19:22;;;;;;;15.88;5.20;;;9.50;88.30;;;;;;4854094;29;20033;-79
2021/11/09 05:21:47;;;;;;;15.32;5.85;;;9.40;88.20;;;;;;4854006;29;20040;-79
2021/11/09 05:24:14;;;;;;;13.95;5.07;;;9.50;88.20;;;;;;4857033;29;20093;-79
2021/11/09 05:26:42;;;;;;;13.63;4.93;;;9.50;88.20;;;;;;4835944;29;20022;-79
2021/11/09 05:29:09;;;;;;;12.48;5.63;;;9.50;88.20;;;;;;4855712;29;20333;-79
2021/11/09 05:31:35;;;;;;;14.43;5.95;;;9.50;88.30;;;;;;4870312;29;20033;-79
2021/11/09 05:34:02;;;;;;;14.38;5.78;;;9.50;88.30;;;;;;4836934;29;20096;-79
2021/11/09 05:36:34;;;;;;;16.00;5.35;;;9.50;88.20;;;;;;4850939;29;20022;-78
2021/11/09 05:39:12;;;;;;;30.80;6.40;;;9.50;88.90;;;;;;4854458;29;20104;-78
2021/11/09 05:41:39;;;;;;;18.42;6.63;;;9.50;88.30;;;;;;4850672;29;20078;-79
2021/11/09 05:44:07;;;;;;;21.85;6.20;;;9.50;88.30;;;;;;4838794;29;20270;-79
2021/11/09 05:46:34;;;;;;;13.13;5.00;;;9.50;88.30;;;;;;4853724;29;20041;-79
2021/11/09 05:49:01;;;;;;;15.55;4.97;;;9.50;88.10;;;;;;4853772;29;20022;-79
2021/11/09 05:51:27;;;;;;;17.17;5.75;;;9.50;88.50;;;;;;4853563;29;20290;-78
2021/11/09 05:53:52;;;;;;;12.48;5.72;;;9.50;88.50;;;;;;4835430;29;20041;-78
2021/11/09 05:56:20;;;;;;;13.85;5.03;;;9.50;88.40;;;;;;4827502;29;20045;-79
2021/11/09 05:58:46;;;;;;;17.33;5.88;;;9.50;88.40;;;;;;4865865;29;20026;-79
2021/11/09 06:01:12;;;;;;;10.32;5.18;;;9.50;88.30;;;;;;4866038;29;20033;-79
2021/11/09 06:03:38;;;;;;;14.48;6.15;;;9.50;88.50;;;;;;4841285;29;20044;-79
2021/11/09 06:06:03;;;;;;;19.08;6.22;;;9.50;88.50;;;;;;4835393;29;20061;-79
2021/11/09 06:08:29;;;;;;;10.57;4.97;;;9.60;88.40;;;;;;4853395;29;20101;-79
2021/11/09 06:10:55;;;;;;;16.05;5.72;;;9.60;88.30;;;;;;4871156;29;20049;-79
2021/11/09 06:13:21;;;;;;;11.35;5.65;;;9.60;88.00;;;;;;4841558;29;20258;-79
2021/11/09 06:15:47;;;;;;;9.98;5.07;;;9.70;88.10;;;;;;4872552;29;20325;-79
2021/11/09 06:18:13;;;;;;;17.88;5.72;;;9.70;87.90;;;;;;4872298;29;20025;-79
2021/11/09 06:20:39;;;;;;;20.42;5.90;;;9.70;87.90;;;;;;4856738;29;20033;-80
2021/11/09 06:23:05;;;;;;;12.32;5.05;;;9.70;87.90;;;;;;4856808;29;20329;-79
2021/11/09 06:25:30;;;;;;;18.27;6.00;;;9.70;87.90;;;;;;4856698;29;20025;-79
2021/11/09 06:27:56;;;;;;;17.38;5.90;;;9.80;87.70;;;;;;4867088;29;20048;-79
2021/11/09 06:30:22;;;;;;;15.25;6.20;;;9.80;87.70;;;;;;4856886;29;20368;-79
2021/11/09 06:32:49;;;;;;;13.40;7.30;;;9.80;87.50;;;;;;4841292;29;20040;-79
2021/11/09 06:35:16;;;;;;;14.13;5.18;;;9.90;87.40;;;;;;4821465;29;20077;-79
2021/11/09 06:37:42;;;;;;;15.88;6.38;;;9.90;87.20;;;;;;4856750;29;20038;-79
2021/11/09 06:40:10;;;;;;;13.65;5.93;;;9.90;87.10;;;;;;4851602;29;20067;-79
2021/11/09 06:42:36;;;;;;;20.17;5.78;;;9.90;86.90;;;;;;4865490;29;20435;-79
2021/11/09 06:45:04;;;;;;;27.37;7.00;;;10.00;87.10;;;;;;4856384;29;20037;-79
2021/11/09 06:47:30;;;;;;;17.08;5.97;;;10.00;86.90;;;;;;4870381;29;20053;-79
2021/11/09 06:49:56;;;;;;;19.35;6.97;;;10.10;86.90;;;;;;4847744;29;20103;-79
2021/11/09 06:52:22;;;;;;;17.35;7.00;;;10.10;86.50;;;;;;4839776;29;20293;-80
2021/11/09 06:54:49;;;;;;;20.98;6.80;;;10.10;86.50;;;;;;4855578;29;20037;-79
2021/11/09 06:57:15;;;;;;;18.35;6.38;;;10.20;86.30;;;;;;4837688;29;20034;-79
2021/11/09 06:59:41;;;;;;;17.60;6.10;;;10.20;86.50;;;;;;4855186;29;20283;-79
2021/11/09 07:02:07;;;;;;;17.40;6.25;;;10.30;86.10;;;;;;4855129;29;20333;-79
2021/11/09 07:04:33;;;;;;;15.55;6.53;;;10.30;85.80;;;;;;4855345;29;20040;-79
2021/11/09 07:07:00;;;;;;;17.63;6.28;;;10.40;86.00;;;;;;4870859;29;20041;-79
2021/11/09 07:09:26;;;;;;;19.73;5.68;;;10.40;86.00;;;;;;4870780;29;20108;-79
2021/11/09 07:11:52;;;;;;;22.65;6.45;;;10.50;85.30;;;;;;4854783;29;20038;-79
2021/11/09 07:14:19;;;;;;;15.98;6.45;;;10.50;84.70;;;;;;4870315;29;20036;-79
2021/11/09 07:16:46;;;;;;;14.20;5.70;;;10.60;85.00;;;;;;4866647;29;20017;-79
2021/11/09 07:19:14;;;;;;;20.45;6.78;;;10.70;84.90;;;;;;4848356;29;20022;-79
2021/11/09 07:21:40;;;;;;;16.73;6.95;;;10.80;85.20;;;;;;4850443;29;20385;-79
2021/11/09 07:24:06;;;;;;;12.90;5.50;;;10.80;84.00;;;;;;4866675;29;20065;-80
2021/11/09 07:26:32;;;;;;;11.35;5.75;;;10.80;83.30;;;;;;4852425;29;20034;-79
2021/11/09 07:28:58;;;;;;;13.33;6.63;;;10.80;83.40;;;;;;4870407;29;20033;-79
2021/11/09 07:31:30;;;;;;;18.48;6.65;;;10.90;83.40;;;;;;4852593;29;20037;-79
2021/11/09 07:33:56;;;;;;;14.95;6.13;;;10.90;83.30;;;;;;4850276;29;20325;-79
2021/11/09 07:36:22;;;;;;;16.98;7.03;;;11.00;82.70;;;;;;4869676;29;20078;-79
2021/11/09 07:38:48;;;;;;;14.40;6.10;;;11.10;82.50;;;;;;4839422;29;20029;-79
2021/11/09 07:41:14;;;;;;;15.73;5.32;;;11.10;81.20;;;;;;4854572;29;20128;-79
2021/11/09 07:43:39;;;;;;;14.38;5.35;;;11.10;82.00;;;;;;4854509;29;20040;-79
2021/11/09 07:46:07;;;;;;;13.82;5.50;;;11.10;82.00;;;;;;4838827;29;20231;-79
2021/11/09 07:48:33;;;;;;;;;;;11.20;81.70;;;;;;4867984;29;20329;-79
2021/11/09 07:50:59;;;;;;;13.20;5.30;;;11.30;82.10;;;;;;4867972;29;19920;-79
2021/11/09 07:53:29;;;;;;;14.25;5.82;;;11.30;81.80;;;;;;4867173;29;20055;-79
2021/11/09 07:56:11;;;;;;;16.73;5.18;;;11.40;81.50;;;;;;4870006;29;20259;-79
2021/11/09 07:58:48;;;;;;;17.67;5.78;;;11.40;80.20;;;;;;4854105;29;20056;-79
2021/11/09 08:01:17;;;;;;;;;;;11.50;80.90;;;;;;4856064;29;20037;-80
2021/11/09 08:06:31;;;;;;;11.52;5.70;;;11.50;79.30;;;;;;4839049;29;20041;-80
2021/11/09 08:09:10;;;;;;;17.00;6.45;;;11.60;80.30;;;;;;4851420;29;20083;-80
2021/11/09 08:11:40;;;;;;;14.18;5.47;;;11.70;79.40;;;;;;4870021;29;20036;-80
2021/11/09 08:14:06;;;;;;;16.92;5.63;;;11.70;79.20;;;;;;4839338;29;20037;-80
2021/11/09 08:16:32;;;;;;;16.75;6.20;;;11.70;79.10;;;;;;4868744;29;20029;-80
2021/11/09 08:18:58;;;;;;;15.13;5.20;;;11.80;79.20;;;;;;4839100;29;20029;-80
2021/11/09 08:21:24;;;;;;;15.55;5.53;;;12.00;80.00;;;;;;4838801;29;20033;-80
2021/11/09 08:23:50;;;;;;;13.15;5.63;;;12.10;77.80;;;;;;4854267;29;20033;-80
2021/11/09 08:26:17;;;;;;;14.65;5.50;;;12.10;76.90;;;;;;4838732;29;20056;-80
2021/11/09 08:28:43;;;;;;;;;;;12.10;77.10;;;;;;4855385;29;20038;-80
2021/11/09 08:31:11;;;;;;;17.77;6.15;;;12.10;77.20;;;;;;4853719;29;19916;-80
2021/11/09 08:33:37;;;;;;;19.27;7.07;;;12.10;77.40;;;;;;4853840;29;20041;-80
2021/11/09 08:36:07;;;;;;;14.07;6.18;;;12.10;76.90;;;;;;4838992;29;20131;-80
2021/11/09 08:38:33;;;;;;;14.02;5.30;;;12.20;77.00;;;;;;4824184;29;20081;-80
2021/11/09 08:41:01;;;;;;;15.43;6.53;;;12.30;76.70;;;;;;4853950;29;20037;-80
2021/11/09 08:43:31;;;;;;;16.67;5.18;;;12.30;75.70;;;;;;4854223;29;20225;-80
2021/11/09 08:46:09;;;;;;;23.30;6.13;;;12.20;76.10;;;;;;4869953;29;20408;-80
2021/11/09 08:48:40;;;;;;;13.77;4.95;;;12.10;75.60;;;;;;4853334;29;20045;-80
2021/11/09 08:51:09;;;;;;;14.95;5.90;;;11.90;75.90;;;;;;4868920;29;20329;-80
2021/11/09 08:53:51;;;;;;;12.73;5.95;;;11.80;76.30;;;;;;4869249;29;20092;-80
2021/11/09 08:56:31;;;;;;;13.23;5.93;;;11.80;77.20;;;;;;4857695;29;20029;-80
2021/11/09 09:04:18;;;;;;;11.50;5.45;;;11.70;77.80;;;;;;4853548;29;20058;-80
2021/11/09 09:06:55;;;;;;;17.35;4.85;;;11.70;78.00;;;;;;4870031;29;20050;-80
2021/11/09 09:09:21;;;;;;;13.02;5.20;;;11.70;76.20;;;;;;4865736;29;20034;-80
2021/11/09 09:11:49;;;;;;;15.35;4.97;;;11.80;76.00;;;;;;4867225;29;20081;-80
2021/11/09 09:14:18;;;;;;;14.18;5.32;;;11.90;76.60;;;;;;4872000;29;20081;-80
2021/11/09 09:16:46;;;;;;;15.38;5.10;;;12.00;76.10;;;;;;4868635;29;20049;-80
2021/11/09 09:19:16;;;;;;;11.77;4.30;;;12.00;75.00;;;;;;4853338;29;20340;-80
2021/11/09 09:25:05;;;;;;;12.85;5.38;;;12.10;75.00;;;;;;4867030;29;20037;-80
2021/11/09 09:33:07;;;;;;;12.65;5.03;;;12.40;73.30;;;;;;4867998;29;20037;-80
2021/11/09 09:57:14;;;;;;;11.05;5.22;;;13.00;71.20;;;;;;4859606;29;20030;-80
2021/11/09 09:59:43;;;;;;;14.20;4.95;;;13.20;71.20;;;;;;4840898;29;20037;-80
2021/11/09 10:02:10;;;;;;;10.40;5.05;;;13.30;70.30;;;;;;4862071;29;20046;-80
2021/11/09 10:04:43;;;;;;;15.15;4.85;;;13.40;69.30;;;;;;4868161;29;20037;-80
2021/11/09 10:07:10;;;;;;;14.90;5.13;;;13.50;69.60;;;;;;4865709;29;20045;-80
2021/11/09 10:09:44;;;;;;;13.48;5.10;;;13.60;69.00;;;;;;4868787;29;20439;-80
2021/11/09 10:12:13;;;;;;;14.63;5.70;;;13.60;69.20;;;;;;4871567;29;20077;-79
2021/11/09 10:14:39;;;;;;;12.02;5.43;;;13.60;68.70;;;;;;4871906;29;20065;-79
2021/11/09 10:17:16;;;;;;;12.70;5.82;;;13.70;69.70;;;;;;4842616;29;20060;-80
2021/11/09 10:19:43;;;;;;;16.35;6.18;;;13.80;69.30;;;;;;4856332;29;20037;-80
2021/11/09 10:22:20;;;;;;;13.80;5.73;;;13.90;68.30;;;;;;4840755;29;20052;-80
2021/11/09 10:24:55;;;;;;;15.98;5.75;;;13.90;67.50;;;;;;4856049;29;20344;-80
2021/11/09 10:27:21;;;;;;;13.15;5.43;;;13.90;68.70;;;;;;4856113;29;20350;-80
2021/11/09 10:29:51;;;;;;;10.77;5.63;;;14.00;66.80;;;;;;4856387;29;20026;-80
2021/11/09 10:32:20;;;;;;;11.13;5.63;;;14.00;66.60;;;;;;4857122;29;20290;-80
2021/11/09 10:34:46;;;;;;;10.80;4.80;;;13.90;66.50;;;;;;4858681;29;20046;-80
2021/11/09 10:37:20;;;;;;;11.63;5.10;;;14.00;67.10;;;;;;4862190;29;20105;-80
2021/11/09 10:39:49;;;;;;;17.08;5.38;;;14.10;65.50;;;;;;4856353;29;20046;-80
2021/11/09 10:42:17;;;;;;;14.35;5.38;;;14.10;66.10;;;;;;4868078;29;20052;-80
2021/11/09 10:45:11;;;;;;;11.90;4.78;;;14.10;64.90;;;;;;4840593;29;20364;-80
2021/11/09 10:47:42;;;;;;;9.27;4.28;;;14.00;63.90;;;;;;4839462;29;20053;-80
2021/11/09 10:50:22;;;;;;;8.73;4.25;;;14.10;63.70;;;;;;4849046;29;20113;-80
2021/11/09 10:53:00;;;;;;;10.57;4.50;;;14.10;63.30;;;;;;4854970;29;20042;-80
2021/11/09 11:05:48;;;;;;;11.38;5.30;;;14.40;63.90;;;;;;4854372;29;20068;-80
2021/11/09 11:08:14;;;;;;;14.48;5.65;;;14.50;64.30;;;;;;4839227;29;20369;-80
2021/11/09 11:10:40;;;;;;;9.90;5.38;;;14.50;64.10;;;;;;4854503;29;20037;-80
2021/11/09 11:13:23;;;;;;;11.95;4.95;;;14.50;63.60;;;;;;4852246;29;20040;-80
2021/11/09 11:16:03;;;;;;;12.55;5.25;;;14.50;63.10;;;;;;4854563;29;20044;-80
2021/11/09 11:18:44;;;;;;;11.13;4.65;;;14.50;63.60;;;;;;4869943;29;20029;-80
2021/11/09 11:21:13;;;;;;;15.00;5.40;;;14.40;62.20;;;;;;4845552;29;20046;-80
2021/11/09 11:23:42;;;;;;;10.20;4.40;;;14.40;62.80;;;;;;4848835;29;20093;-80
2021/11/09 11:26:09;;;;;;;11.57;4.38;;;14.30;62.20;;;;;;4864633;29;20046;-80
2021/11/09 11:28:41;;;;;;;8.05;4.00;;;14.20;63.00;;;;;;4856809;29;20384;-80
2021/11/09 11:31:08;;;;;;;12.27;4.10;;;14.10;62.80;;;;;;4870615;29;20041;-80
2021/11/09 11:33:35;;;;;;;9.65;3.55;;;14.00;63.30;;;;;;4854819;29;20057;-80
2021/11/09 11:36:01;;;;;;;11.60;4.30;;;14.10;63.90;;;;;;4839712;29;20325;-80
2021/11/09 11:38:29;;;;;;;11.73;4.13;;;14.20;63.50;;;;;;4870371;29;20033;-80
2021/11/09 11:41:00;;;;;;;8.77;3.67;;;14.10;63.20;;;;;;4839587;29;20056;-80
2021/11/09 11:43:47;;;;;;;6.85;3.25;;;13.90;63.60;;;;;;4854923;29;20037;-80
2021/11/09 11:46:36;;;;;;;;;;;13.80;62.50;;;;;;4854986;29;20053;-80
2021/11/09 11:49:12;;;;;;;11.73;4.07;;;13.90;63.60;;;;;;4869936;29;20021;-80
2021/11/09 11:51:46;;;;;;;11.52;3.58;;;13.90;64.90;;;;;;4865191;29;20037;-80
2021/11/09 11:54:17;;;;;;;7.60;3.58;;;13.90;63.30;;;;;;4869414;29;20355;-80
2021/11/09 11:56:46;;;;;;;7.45;3.28;;;13.90;63.50;;;;;;4854476;29;20069;-80
2021/11/09 11:59:21;;;;;;;6.55;2.85;;;13.90;61.80;;;;;;4854790;29;20217;-80
2021/11/09 12:01:48;;;;;;;7.18;3.25;;;13.90;62.50;;;;;;4854227;29;20039;-80
2021/11/09 12:04:33;;;;;;;;;;;13.90;61.60;;;;;;4871001;29;20030;-80
2021/11/09 12:06:58;;;;;;;14.80;3.88;;;14.00;62.30;;;;;;4869599;29;20188;-80
2021/11/09 12:09:33;;;;;;;14.93;4.68;;;14.00;63.10;;;;;;4839266;29;20036;-80
2021/11/09 12:12:22;;;;;;;7.90;3.30;;;14.00;62.90;;;;;;4854360;29;20033;-80
2021/11/09 12:15:01;;;;;;;7.75;2.78;;;13.90;62.90;;;;;;4869639;29;20190;-80
2021/11/09 12:17:36;;;;;;;10.32;3.10;;;13.90;62.30;;;;;;4854152;29;20328;-80
2021/11/09 12:20:14;;;;;;;7.50;2.65;;;13.90;60.90;;;;;;4853890;29;20112;-80
2021/11/09 12:22:40;;;;;;;12.63;3.45;;;13.90;62.10;;;;;;4869586;29;20045;-80
2021/11/09 12:25:09;;;;;;;9.35;3.38;;;13.90;62.50;;;;;;4884891;29;20081;-80
2021/11/09 12:27:53;;;;;;;14.20;4.22;;;13.80;61.80;;;;;;4854021;29;20029;-79
2021/11/09 12:30:37;;;;;;;16.15;4.32;;;13.80;62.90;;;;;;4869249;29;20044;-80
2021/11/09 12:33:16;;;;;;;4.90;2.65;;;13.90;63.90;;;;;;4854066;29;20031;-79
2021/11/09 12:35:58;;;;;;;7.57;2.58;;;13.90;61.60;;;;;;4869075;29;20026;-79
2021/11/09 12:38:33;;;;;;;2.50;1.20;;;13.90;60.20;;;;;;4869393;29;20333;-79
2021/11/09 12:41:11;;;;;;;5.88;2.10;;;13.90;58.70;;;;;;4854028;29;20029;-79
2021/11/09 12:43:51;;;;;;;5.65;2.65;;;13.90;58.70;;;;;;4885330;29;20040;-79
2021/11/09 12:49:14;;;;;;;6.53;2.13;;;13.80;58.60;;;;;;4866685;29;20045;-79
2021/11/09 12:51:46;;;;;;;6.13;2.50;;;13.70;57.10;;;;;;4869408;29;20348;-79
2021/11/09 12:54:29;;;;;;;4.32;1.90;;;13.80;58.10;;;;;;4853668;29;20029;-79
2021/11/09 12:57:06;;;;;;;3.53;2.28;;;13.70;57.40;;;;;;4848263;29;20037;-79
2021/11/09 12:59:43;;;;;;;17.73;3.83;;;13.70;58.10;;;;;;4869211;29;20092;-79
2021/11/09 13:10:06;;;;;;;6.93;3.15;;;13.60;59.50;;;;;;4870411;29;20037;-79
2021/11/09 13:12:34;;;;;;;7.15;3.20;;;13.60;60.10;;;;;;4853526;29;20227;-79
2021/11/09 13:15:17;;;;;;;7.55;3.38;;;13.60;61.10;;;;;;4853443;29;20034;-79
2021/11/09 13:17:59;;;;;;;9.75;3.47;;;13.60;59.90;;;;;;4869851;29;20033;-79
2021/11/09 13:23:16;;;;;;;8.38;3.22;;;13.70;61.10;;;;;;4869661;29;20026;-79
2021/11/09 13:25:46;;;;;;;12.25;3.70;;;13.60;60.10;;;;;;4838446;29;20038;-79
2021/11/09 13:28:12;;;;;;;8.48;3.15;;;13.60;60.80;;;;;;4888366;29;20056;-79
2021/11/09 13:30:42;;;;;;;7.73;3.47;;;13.50;60.40;;;;;;4884085;29;20037;-79
2021/11/09 13:33:09;;;;;;;12.90;3.45;;;13.50;61.20;;;;;;4853139;29;20052;-79
2021/11/09 13:35:38;;;;;;;8.50;3.47;;;13.40;61.60;;;;;;4853425;29;20321;-81
2021/11/09 13:38:27;;;;;;;9.00;3.05;;;13.50;62.00;;;;;;4853334;29;20033;-80
2021/11/09 13:40:57;;;;;;;6.25;2.80;;;13.40;61.40;;;;;;4853097;29;20044;-80
2021/11/09 13:43:27;;;;;;;15.07;4.13;;;13.40;61.10;;;;;;4858019;29;20104;-80
2021/11/09 13:46:04;;;;;;;9.85;2.78;;;13.40;60.90;;;;;;4868709;29;20061;-80
2021/11/09 13:48:32;;;;;;;10.73;2.72;;;13.40;61.20;;;;;;4861102;29;20138;-80
2021/11/09 13:51:05;;;;;;;12.05;3.90;;;13.40;61.10;;;;;;4863012;29;20097;-80
2021/11/09 13:53:42;;;;;;;11.05;3.50;;;13.40;61.90;;;;;;4868599;29;20035;-79
2021/11/09 13:56:27;;;;;;;6.75;3.58;;;13.30;62.20;;;;;;4853170;29;20322;-80
2021/11/09 13:59:05;;;;;;;9.63;3.85;;;13.30;62.50;;;;;;4868488;29;20041;-81
2021/11/09 14:01:38;;;;;;;6.90;3.28;;;13.30;62.60;;;;;;4853179;29;20344;-80
2021/11/09 14:04:31;;;;;;;5.07;3.25;;;13.30;62.50;;;;;;4868131;29;20109;-80
2021/11/09 14:07:28;;;;;;;8.20;3.17;;;13.20;62.20;;;;;;4865956;29;20037;-80
2021/11/09 14:13:01;;;;;;;8.95;3.03;;;13.10;62.20;;;;;;4868264;29;20031;-80
2021/11/09 14:18:30;;;;;;;7.57;3.17;;;13.10;62.90;;;;;;4862978;29;20348;-80
2021/11/09 14:20:57;;;;;;;8.93;4.00;;;13.00;63.10;;;;;;4849677;29;20042;-80
2021/11/09 14:23:38;;;;;;;8.10;3.25;;;13.00;62.90;;;;;;4852258;29;20041;-80
2021/11/09 14:26:26;;;;;;;9.43;3.53;;;12.90;62.80;;;;;;4861724;29;20041;-81
2021/11/09 14:28:56;;;;;;;9.60;3.75;;;12.90;63.20;;;;;;4867708;29;20210;-81
2021/11/09 14:31:32;;;;;;;6.80;3.20;;;12.90;63.40;;;;;;4869505;29;20353;-79
2021/11/09 14:34:19;;;;;;;8.73;3.72;;;12.90;63.90;;;;;;4850182;29;20037;-82
2021/11/09 14:36:47;;;;;;;;;;;12.80;64.20;;;;;;4841240;29;20038;-81
2021/11/09 14:39:17;;;;;;;9.90;4.15;;;12.70;64.60;;;;;;4855334;29;19908;-81
2021/11/09 14:42:26;;;;;;;11.60;3.72;;;12.70;65.00;;;;;;4854795;29;20202;-81
2021/11/09 14:47:39;;;;;;;11.18;4.28;;;12.60;65.70;;;;;;4870202;29;20161;-81
2021/11/09 14:50:11;;;;;;;10.68;4.40;;;12.60;66.20;;;;;;4854093;29;20037;-81
2021/11/09 14:52:39;;;;;;;16.65;4.13;;;12.50;66.60;;;;;;4849416;29;20026;-81
2021/11/09 14:55:39;;;;;;;8.70;3.92;;;12.40;66.60;;;;;;4853940;29;20039;-81
2021/11/09 14:58:24;;;;;;;8.88;3.88;;;12.30;65.90;;;;;;4852522;29;20057;-81
2021/11/09 15:00:50;;;;;;;10.02;3.80;;;12.30;66.00;;;;;;4861457;29;20040;-81
2021/11/09 15:03:16;;;;;;;7.80;3.45;;;12.20;66.20;;;;;;4871109;29;20033;-82
2021/11/09 15:05:43;;;;;;;16.60;3.50;;;12.20;67.00;;;;;;4871633;29;20037;-81
2021/11/09 15:08:18;;;;;;;8.65;3.80;;;12.10;66.50;;;;;;4871330;29;20058;-81
2021/11/09 15:32:11;;;;;;;11.20;4.50;;;11.40;68.40;;;;;;4872064;29;20060;-81
2021/11/09 15:35:08;;;;;;;18.00;5.20;;;11.40;68.70;;;;;;4857608;29;20041;-81
2021/11/09 15:37:40;;;;;;;;;;;11.30;68.90;;;;;;4859661;29;20033;-81
2021/11/09 15:40:11;;;;;;;15.98;5.32;;;11.30;69.20;;;;;;4870444;29;19975;-81
2021/11/09 15:42:38;;;;;;;12.82;4.75;;;11.20;69.40;;;;;;4854717;29;20124;-81
2021/11/09 15:45:04;;;;;;;;;;;11.10;69.80;;;;;;4855663;29;20077;-81
2021/11/09 15:47:30;;;;;;;16.63;3.57;;;11.10;70.60;;;;;;4854821;29;19920;-80
2021/11/09 15:49:56;;;;;;;5.75;3.55;;;11.00;70.10;;;;;;4854737;29;20124;-81
2021/11/09 15:52:21;;;;;;;13.13;4.25;;;11.00;70.40;;;;;;4854864;29;20029;-80
2021/11/09 15:54:49;;;;;;;9.90;5.38;;;10.90;70.80;;;;;;4854726;29;20042;-81
2021/11/09 15:57:15;;;;;;;9.88;5.22;;;10.80;71.30;;;;;;4854782;29;20053;-81
2021/11/09 15:59:41;;;;;;;8.93;4.32;;;10.70;71.70;;;;;;4854765;29;20064;-81
2021/11/09 16:02:08;;;;;;;12.63;5.47;;;10.60;72.00;;;;;;4855118;29;20029;-81
2021/11/09 16:04:40;;;;;;;12.02;5.03;;;10.50;72.40;;;;;;4870093;29;20025;-81
2021/11/09 16:07:07;;;;;;;15.70;6.05;;;10.50;73.30;;;;;;4871057;29;20101;-81
2021/11/09 16:09:33;;;;;;;20.57;5.80;;;10.50;73.80;;;;;;4854555;29;20041;-81
2021/11/09 16:11:59;;;;;;;12.35;4.60;;;10.40;74.10;;;;;;4854653;29;20026;-81
2021/11/09 16:14:25;;;;;;;12.20;4.40;;;10.30;74.70;;;;;;4870201;29;20229;-81
2021/11/09 16:16:51;;;;;;;19.05;5.22;;;10.30;75.10;;;;;;4854513;29;20034;-81
2021/11/09 16:19:16;;;;;;;19.38;5.18;;;10.30;75.10;;;;;;4839448;29;20049;-81
2021/11/09 16:21:42;;;;;;;19.48;5.18;;;10.20;75.60;;;;;;4854440;29;20052;-81
2021/11/09 16:24:11;;;;;;;10.18;4.68;;;10.20;76.50;;;;;;4839414;29;20037;-81
2021/11/09 16:26:37;;;;;;;11.70;5.18;;;10.10;76.20;;;;;;4885548;29;20063;-81
2021/11/09 16:29:03;;;;;;;13.70;4.88;;;10.10;76.70;;;;;;4859752;29;20241;-79
2021/11/09 16:31:29;;;;;;;13.38;5.75;;;10.00;76.90;;;;;;4854712;29;20342;-81
2021/11/09 16:33:57;;;;;;;10.15;4.85;;;10.00;77.30;;;;;;4854258;29;20033;-80
2021/11/09 16:36:24;;;;;;;11.98;5.57;;;9.90;77.60;;;;;;4854144;29;20033;-79
2021/11/09 16:38:56;;;;;;;14.48;6.20;;;9.90;78.00;;;;;;4805850;29;20113;-79
2021/11/09 16:41:25;;;;;;;12.23;5.35;;;9.90;78.10;;;;;;4842563;29;20037;-80
2021/11/09 16:44:06;;;;;;;14.40;6.50;;;9.80;78.70;;;;;;4852665;29;20334;-80
2021/11/09 16:51:46;;;;;;;12.63;6.50;;;9.60;80.10;;;;;;4868898;29;20150;-81
2021/11/09 17:08:08;;;;;;;15.43;6.25;;;9.40;81.40;;;;;;4852084;29;20034;-80
2021/11/09 18:20:23;;;;;;;15.13;7.07;;;8.50;86.90;;;;;;4809061;29;20042;-79
2021/11/09 18:22:52;;;;;;;36.37;8.23;;;8.60;87.00;;;;;;4835097;29;20065;-79
2021/11/09 18:25:21;;;;;;;12.35;6.53;;;8.60;87.20;;;;;;4852197;29;20357;-79
2021/11/09 18:27:48;;;;;;;12.48;6.85;;;8.60;87.00;;;;;;4837329;29;20065;-80
2021/11/09 18:30:20;;;;;;;12.60;6.80;;;8.60;87.10;;;;;;4819821;29;20038;-79
2021/11/09 18:32:46;;;;;;;16.70;7.63;;;8.60;87.40;;;;;;4850139;29;20054;-79
2021/11/09 18:35:17;;;;;;;13.48;6.97;;;8.70;87.40;;;;;;4788540;29;20030;-81
2021/11/09 18:37:43;;;;;;;15.95;7.43;;;8.70;87.60;;;;;;4831720;29;20034;-80
2021/11/09 18:40:10;;;;;;;15.15;7.07;;;8.70;87.50;;;;;;4802784;29;20293;-79
2021/11/09 18:42:37;;;;;;;13.10;7.78;;;8.70;87.60;;;;;;4802531;29;20057;-80
2021/11/09 18:45:06;;;;;;;18.67;7.68;;;8.70;87.70;;;;;;4816914;29;20109;-81
2021/11/09 18:47:32;;;;;;;13.52;7.57;;;8.70;87.70;;;;;;4832391;29;20065;-80
2021/11/09 18:49:58;;;;;;;16.40;7.85;;;8.70;88.00;;;;;;4816205;29;20125;-80
2021/11/09 18:52:24;;;;;;;18.60;8.38;;;8.70;88.00;;;;;;4860135;29;20068;-81
2021/11/09 18:54:54;;;;;;;16.92;8.70;;;8.70;88.20;;;;;;4856525;29;20093;-80
2021/11/09 18:57:21;;;;;;;18.08;9.05;;;8.70;88.60;;;;;;4850305;29;20329;-80
2021/11/09 18:59:48;;;;;;;18.40;8.25;;;8.70;88.50;;;;;;4861127;29;20069;-80
2021/11/09 19:02:14;;;;;;;;;;;8.80;88.40;;;;;;4840963;29;20116;-80
2021/11/09 19:04:41;;;;;;;16.30;8.00;;;8.80;88.30;;;;;;4861206;29;19948;-80
2021/11/09 19:07:08;;;;;;;16.70;7.90;;;8.80;87.80;;;;;;4850375;29;20330;-80
2021/11/09 19:09:35;;;;;;;;;;;8.80;87.70;;;;;;4838231;29;20041;-80
2021/11/09 19:12:01;;;;;;;15.95;7.40;;;8.80;88.10;;;;;;4859282;29;19919;-81
2021/11/09 19:14:27;;;;;;;16.27;7.10;;;8.70;88.00;;;;;;4840544;29;20704;-80
2021/11/09 19:16:53;;;;;;;22.23;8.07;;;8.80;88.10;;;;;;4870228;29;20030;-80
2021/11/09 19:19:24;;;;;;;15.32;7.60;;;8.80;87.90;;;;;;4840890;29;20041;-80
2021/11/09 19:21:53;;;;;;;14.63;8.77;;;8.80;88.10;;;;;;4855031;29;20337;-80
2021/11/09 19:24:19;;;;;;;12.75;8.20;;;8.80;87.90;;;;;;4837376;29;20034;-80
2021/11/09 19:26:46;;;;;;;16.50;8.70;;;8.80;87.80;;;;;;4858005;29;20042;-80
2021/11/09 19:29:12;;;;;;;17.85;9.18;;;8.70;87.90;;;;;;4855842;29;20096;-80
2021/11/09 19:31:38;;;;;;;25.92;11.07;;;8.70;87.80;;;;;;4866696;29;20345;-80
2021/11/09 19:34:09;;;;;;;16.23;7.60;;;8.70;88.00;;;;;;4840659;29;20037;-80
2021/11/09 19:36:35;;;;;;;18.60;8.48;;;8.70;88.20;;;;;;4852993;29;20037;-80
2021/11/09 19:39:03;;;;;;;21.33;8.90;;;8.70;88.00;;;;;;4882800;29;20033;-80
2021/11/09 19:41:28;;;;;;;20.33;9.15;;;8.60;88.10;;;;;;4859146;29;20058;-80
2021/11/09 19:44:04;;;;;;;22.08;10.35;;;8.60;88.10;;;;;;4867815;29;20107;-81
2021/11/09 19:46:35;;;;;;;22.50;8.98;;;8.60;88.00;;;;;;4857385;29;20057;-79
2021/11/09 19:49:04;;;;;;;22.45;9.45;;;8.60;88.00;;;;;;4865222;29;20040;-79
2021/11/09 19:51:31;;;;;;;17.23;9.43;;;8.60;88.40;;;;;;4870589;29;20093;-80
2021/11/09 19:53:58;;;;;;;15.52;7.50;;;8.60;88.30;;;;;;4867000;29;20017;-78
2021/11/09 19:56:25;;;;;;;18.63;7.82;;;8.60;88.20;;;;;;4884271;29;20037;-79
2021/11/09 19:58:54;;;;;;;16.08;7.57;;;8.60;88.20;;;;;;4853776;29;20218;-79
2021/11/09 20:01:20;;;;;;;15.95;8.07;;;8.60;88.00;;;;;;4852675;29;20183;-79
2021/11/09 20:03:47;;;;;;;18.87;7.90;;;8.60;88.00;;;;;;4867333;29;20037;-79
2021/11/09 20:06:16;;;;;;;18.90;7.93;;;8.60;87.90;;;;;;4849713;29;20393;-79
2021/11/09 20:08:46;;;;;;;16.35;7.75;;;8.60;87.70;;;;;;4847476;29;20052;-79
2021/11/09 20:11:13;;;;;;;16.58;7.03;;;8.60;87.70;;;;;;4870006;29;20124;-79
2021/11/09 20:13:41;;;;;;;;;;;8.60;87.80;;;;;;4848759;29;20033;-80
2021/11/09 20:16:10;;;;;;;15.48;8.02;;;8.60;87.80;;;;;;4867842;29;19908;-79
2021/11/09 20:18:41;;;;;;;14.05;6.93;;;8.60;87.60;;;;;;4835874;29;20053;-79
2021/11/09 20:21:09;;;;;;;20.45;7.25;;;8.60;87.80;;;;;;4884060;29;20365;-79
2021/11/09 20:23:37;;;;;;;14.27;6.88;;;8.60;87.80;;;;;;4853532;29;20233;-79
2021/11/09 20:26:06;;;;;;;13.02;6.35;;;8.60;87.80;;;;;;4863580;29;20242;-79
2021/11/09 20:28:34;;;;;;;11.30;6.88;;;8.60;87.80;;;;;;4848266;29;20052;-79
2021/11/09 20:31:00;;;;;;;12.85;7.25;;;8.60;87.90;;;;;;4853347;29;20029;-79
2021/11/09 20:33:29;;;;;;;13.13;6.87;;;8.50;87.80;;;;;;4856061;29;20356;-79
2021/11/09 20:35:55;;;;;;;14.73;7.00;;;8.50;87.90;;;;;;4855396;29;20217;-79
2021/11/09 20:38:26;;;;;;;11.93;7.03;;;8.50;87.90;;;;;;4855935;29;20036;-79
2021/11/09 20:40:53;;;;;;;16.33;8.27;;;8.60;87.90;;;;;;4864576;29;20077;-79
2021/11/09 20:43:19;;;;;;;;;;;8.60;87.80;;;;;;4869933;29;20033;-79
2021/11/09 20:45:46;;;;;;;14.10;7.53;;;8.50;87.90;;;;;;4852623;29;19956;-79